sensor_id;sensor_type;location;lat;lon;timestamp;P1;durP1;ratioP1;P2;durP2;ratioP2
42682;SDS011;28293;50.930;3.464;2023-07-29T00:01:01;6.68;;;3.20;;
42682;SDS011;28293;50.930;3.464;2023-07-29T00:03:26;6.50;;;3.40;;
42682;SDS011;28293;50.930;3.464;2023-07-29T00:05:52;6.13;;;3.13;;
42682;SDS011;28293;50.930;3.464;2023-07-29T00:08:18;5.65;;;2.83;;
42682;SDS011;28293;50.930;3.464;2023-07-29T00:10:44;5.80;;;2.92;;
42682;SDS011;28293;50.930;3.464;2023-07-29T00:13:09;5.82;;;3.10;;
42682;SDS011;28293;50.930;3.464;2023-07-29T00:15:35;5.72;;;3.10;;
42682;SDS011;28293;50.930;3.464;2023-07-29T00:18:01;6.10;;;2.80;;
42682;SDS011;28293;50.930;3.464;2023-07-29T00:20:26;6.85;;;3.10;;
42682;SDS011;28293;50.930;3.464;2023-07-29T00:22:52;6.10;;;3.15;;
42682;SDS011;28293;50.930;3.464;2023-07-29T00:25:19;7.43;;;3.17;;
42682;SDS011;28293;50.930;3.464;2023-07-29T00:27:46;7.10;;;3.35;;
42682;SDS011;28293;50.930;3.464;2023-07-29T00:30:11;7.85;;;3.35;;
42682;SDS011;28293;50.930;3.464;2023-07-29T00:32:37;6.15;;;3.47;;
42682;SDS011;28293;50.930;3.464;2023-07-29T00:35:03;7.60;;;3.10;;
42682;SDS011;28293;50.930;3.464;2023-07-29T00:37:29;5.80;;;2.92;;
42682;SDS011;28293;50.930;3.464;2023-07-29T00:39:55;7.63;;;3.55;;
42682;SDS011;28293;50.930;3.464;2023-07-29T00:42:21;6.45;;;3.58;;
42682;SDS011;28293;50.930;3.464;2023-07-29T00:44:47;7.03;;;3.58;;
42682;SDS011;28293;50.930;3.464;2023-07-29T00:47:12;6.90;;;3.50;;
42682;SDS011;28293;50.930;3.464;2023-07-29T00:49:41;7.72;;;3.50;;
42682;SDS011;28293;50.930;3.464;2023-07-29T00:52:07;9.23;;;3.85;;
42682;SDS011;28293;50.930;3.464;2023-07-29T00:54:36;6.40;;;3.45;;
42682;SDS011;28293;50.930;3.464;2023-07-29T00:57:01;6.03;;;3.05;;
42682;SDS011;28293;50.930;3.464;2023-07-29T00:59:28;6.40;;;2.97;;
42682;SDS011;28293;50.930;3.464;2023-07-29T01:01:55;5.40;;;3.00;;
42682;SDS011;28293;50.930;3.464;2023-07-29T01:04:21;7.75;;;3.58;;
42682;SDS011;28293;50.930;3.464;2023-07-29T01:09:33;8.93;;;3.75;;
42682;SDS011;28293;50.930;3.464;2023-07-29T01:12:21;7.93;;;3.45;;
42682;SDS011;28293;50.930;3.464;2023-07-29T01:15:16;7.18;;;3.50;;
42682;SDS011;28293;50.930;3.464;2023-07-29T01:17:51;7.78;;;3.88;;
42682;SDS011;28293;50.930;3.464;2023-07-29T01:20:19;7.22;;;3.55;;
42682;SDS011;28293;50.930;3.464;2023-07-29T01:22:46;7.03;;;3.67;;
42682;SDS011;28293;50.930;3.464;2023-07-29T01:25:13;7.43;;;3.90;;
42682;SDS011;28293;50.930;3.464;2023-07-29T01:27:40;7.95;;;3.88;;
42682;SDS011;28293;50.930;3.464;2023-07-29T01:30:07;8.00;;;3.60;;
42682;SDS011;28293;50.930;3.464;2023-07-29T01:35:37;9.88;;;4.28;;
42682;SDS011;28293;50.930;3.464;2023-07-29T01:38:17;6.70;;;3.25;;
42682;SDS011;28293;50.930;3.464;2023-07-29T01:40:44;6.20;;;3.60;;
42682;SDS011;28293;50.930;3.464;2023-07-29T01:43:10;7.70;;;3.67;;
42682;SDS011;28293;50.930;3.464;2023-07-29T01:45:37;7.70;;;3.88;;
42682;SDS011;28293;50.930;3.464;2023-07-29T01:48:04;7.18;;;4.00;;
42682;SDS011;28293;50.930;3.464;2023-07-29T01:50:30;7.25;;;4.13;;
42682;SDS011;28293;50.930;3.464;2023-07-29T01:52:57;6.97;;;3.80;;
42682;SDS011;28293;50.930;3.464;2023-07-29T01:55:23;7.10;;;3.58;;
42682;SDS011;28293;50.930;3.464;2023-07-29T01:57:49;7.47;;;3.88;;
42682;SDS011;28293;50.930;3.464;2023-07-29T02:00:15;7.93;;;3.95;;
42682;SDS011;28293;50.930;3.464;2023-07-29T02:02:40;9.32;;;4.22;;
42682;SDS011;28293;50.930;3.464;2023-07-29T02:05:06;6.95;;;3.97;;
42682;SDS011;28293;50.930;3.464;2023-07-29T02:07:32;6.78;;;3.97;;
42682;SDS011;28293;50.930;3.464;2023-07-29T02:09:58;5.90;;;3.22;;
42682;SDS011;28293;50.930;3.464;2023-07-29T02:12:23;8.02;;;4.40;;
42682;SDS011;28293;50.930;3.464;2023-07-29T02:14:49;7.13;;;3.70;;
42682;SDS011;28293;50.930;3.464;2023-07-29T02:17:15;6.32;;;3.50;;
42682;SDS011;28293;50.930;3.464;2023-07-29T02:19:40;5.63;;;3.38;;
42682;SDS011;28293;50.930;3.464;2023-07-29T02:22:06;7.55;;;3.70;;
42682;SDS011;28293;50.930;3.464;2023-07-29T02:24:32;8.10;;;3.95;;
42682;SDS011;28293;50.930;3.464;2023-07-29T02:26:57;6.50;;;3.60;;
42682;SDS011;28293;50.930;3.464;2023-07-29T02:29:23;7.18;;;3.50;;
42682;SDS011;28293;50.930;3.464;2023-07-29T02:31:50;5.70;;;3.30;;
42682;SDS011;28293;50.930;3.464;2023-07-29T02:34:15;5.80;;;3.28;;
42682;SDS011;28293;50.930;3.464;2023-07-29T02:36:41;7.47;;;3.90;;
42682;SDS011;28293;50.930;3.464;2023-07-29T02:39:07;7.00;;;3.85;;
42682;SDS011;28293;50.930;3.464;2023-07-29T02:41:33;6.32;;;3.53;;
42682;SDS011;28293;50.930;3.464;2023-07-29T02:43:58;6.68;;;3.70;;
42682;SDS011;28293;50.930;3.464;2023-07-29T02:46:24;6.55;;;3.40;;
42682;SDS011;28293;50.930;3.464;2023-07-29T02:48:50;9.38;;;4.07;;
42682;SDS011;28293;50.930;3.464;2023-07-29T02:51:16;7.53;;;3.63;;
42682;SDS011;28293;50.930;3.464;2023-07-29T02:53:42;8.57;;;3.83;;
42682;SDS011;28293;50.930;3.464;2023-07-29T02:56:07;6.15;;;3.40;;
42682;SDS011;28293;50.930;3.464;2023-07-29T02:58:35;6.85;;;3.60;;
42682;SDS011;28293;50.930;3.464;2023-07-29T03:01:02;6.80;;;3.67;;
42682;SDS011;28293;50.930;3.464;2023-07-29T03:03:31;7.38;;;4.07;;
42682;SDS011;28293;50.930;3.464;2023-07-29T03:06:00;8.60;;;4.32;;
42682;SDS011;28293;50.930;3.464;2023-07-29T03:08:29;7.80;;;4.40;;
42682;SDS011;28293;50.930;3.464;2023-07-29T03:10:55;6.97;;;3.88;;
42682;SDS011;28293;50.930;3.464;2023-07-29T03:13:22;7.95;;;3.70;;
42682;SDS011;28293;50.930;3.464;2023-07-29T03:15:47;8.07;;;4.20;;
42682;SDS011;28293;50.930;3.464;2023-07-29T03:18:14;7.00;;;4.10;;
42682;SDS011;28293;50.930;3.464;2023-07-29T03:20:40;6.97;;;4.07;;
42682;SDS011;28293;50.930;3.464;2023-07-29T03:23:05;7.38;;;3.88;;
42682;SDS011;28293;50.930;3.464;2023-07-29T03:25:31;7.45;;;4.10;;
42682;SDS011;28293;50.930;3.464;2023-07-29T03:27:57;9.55;;;4.25;;
42682;SDS011;28293;50.930;3.464;2023-07-29T03:30:23;7.13;;;4.10;;
42682;SDS011;28293;50.930;3.464;2023-07-29T03:32:49;6.50;;;3.88;;
42682;SDS011;28293;50.930;3.464;2023-07-29T03:35:14;8.65;;;4.32;;
42682;SDS011;28293;50.930;3.464;2023-07-29T03:37:41;8.20;;;3.78;;
42682;SDS011;28293;50.930;3.464;2023-07-29T03:40:06;7.93;;;4.15;;
42682;SDS011;28293;50.930;3.464;2023-07-29T03:42:34;7.20;;;4.45;;
42682;SDS011;28293;50.930;3.464;2023-07-29T03:45:00;7.50;;;4.57;;
42682;SDS011;28293;50.930;3.464;2023-07-29T03:47:26;8.13;;;3.95;;
42682;SDS011;28293;50.930;3.464;2023-07-29T03:49:52;7.93;;;4.32;;
42682;SDS011;28293;50.930;3.464;2023-07-29T03:52:18;8.52;;;4.50;;
42682;SDS011;28293;50.930;3.464;2023-07-29T03:54:44;10.27;;;4.60;;
42682;SDS011;28293;50.930;3.464;2023-07-29T03:57:09;7.45;;;3.92;;
42682;SDS011;28293;50.930;3.464;2023-07-29T03:59:35;10.15;;;4.38;;
42682;SDS011;28293;50.930;3.464;2023-07-29T04:02:01;8.52;;;4.80;;
42682;SDS011;28293;50.930;3.464;2023-07-29T04:04:26;8.80;;;4.47;;
42682;SDS011;28293;50.930;3.464;2023-07-29T04:06:52;7.00;;;4.00;;
42682;SDS011;28293;50.930;3.464;2023-07-29T04:09:17;8.68;;;4.65;;
42682;SDS011;28293;50.930;3.464;2023-07-29T04:11:43;9.88;;;5.03;;
42682;SDS011;28293;50.930;3.464;2023-07-29T04:14:09;8.95;;;4.20;;
42682;SDS011;28293;50.930;3.464;2023-07-29T04:16:34;7.75;;;4.43;;
42682;SDS011;28293;50.930;3.464;2023-07-29T04:19:00;7.93;;;4.35;;
42682;SDS011;28293;50.930;3.464;2023-07-29T04:21:26;9.88;;;4.50;;
42682;SDS011;28293;50.930;3.464;2023-07-29T04:23:51;7.57;;;3.97;;
42682;SDS011;28293;50.930;3.464;2023-07-29T04:26:17;8.27;;;4.40;;
42682;SDS011;28293;50.930;3.464;2023-07-29T04:28:43;7.68;;;4.35;;
42682;SDS011;28293;50.930;3.464;2023-07-29T04:31:09;7.72;;;3.85;;
42682;SDS011;28293;50.930;3.464;2023-07-29T04:33:34;8.05;;;4.28;;
42682;SDS011;28293;50.930;3.464;2023-07-29T04:36:00;7.03;;;4.03;;
42682;SDS011;28293;50.930;3.464;2023-07-29T04:38:29;6.85;;;3.72;;
42682;SDS011;28293;50.930;3.464;2023-07-29T04:40:57;8.82;;;4.22;;
42682;SDS011;28293;50.930;3.464;2023-07-29T04:43:26;7.68;;;4.07;;
42682;SDS011;28293;50.930;3.464;2023-07-29T04:45:56;8.23;;;4.40;;
42682;SDS011;28293;50.930;3.464;2023-07-29T04:48:22;10.27;;;4.63;;
42682;SDS011;28293;50.930;3.464;2023-07-29T04:50:48;11.07;;;4.07;;
42682;SDS011;28293;50.930;3.464;2023-07-29T04:53:13;8.38;;;4.20;;
42682;SDS011;28293;50.930;3.464;2023-07-29T04:55:41;8.32;;;4.03;;
42682;SDS011;28293;50.930;3.464;2023-07-29T04:58:07;9.48;;;3.65;;
42682;SDS011;28293;50.930;3.464;2023-07-29T05:00:33;7.50;;;3.70;;
42682;SDS011;28293;50.930;3.464;2023-07-29T05:02:59;8.00;;;3.90;;
42682;SDS011;28293;50.930;3.464;2023-07-29T05:05:26;7.68;;;4.03;;
42682;SDS011;28293;50.930;3.464;2023-07-29T05:07:52;7.57;;;3.60;;
42682;SDS011;28293;50.930;3.464;2023-07-29T05:10:17;9.10;;;4.00;;
42682;SDS011;28293;50.930;3.464;2023-07-29T05:12:44;7.53;;;4.10;;
42682;SDS011;28293;50.930;3.464;2023-07-29T05:15:10;11.02;;;4.35;;
42682;SDS011;28293;50.930;3.464;2023-07-29T05:17:35;9.65;;;4.35;;
42682;SDS011;28293;50.930;3.464;2023-07-29T05:20:01;7.03;;;3.72;;
42682;SDS011;28293;50.930;3.464;2023-07-29T05:22:27;8.65;;;4.00;;
42682;SDS011;28293;50.930;3.464;2023-07-29T05:24:53;6.25;;;3.60;;
42682;SDS011;28293;50.930;3.464;2023-07-29T05:27:18;8.55;;;3.35;;
42682;SDS011;28293;50.930;3.464;2023-07-29T05:29:44;6.97;;;3.60;;
42682;SDS011;28293;50.930;3.464;2023-07-29T05:32:10;6.47;;;2.97;;
42682;SDS011;28293;50.930;3.464;2023-07-29T05:34:35;8.13;;;3.35;;
42682;SDS011;28293;50.930;3.464;2023-07-29T05:37:02;7.45;;;3.00;;
42682;SDS011;28293;50.930;3.464;2023-07-29T05:39:28;5.88;;;2.63;;
42682;SDS011;28293;50.930;3.464;2023-07-29T05:41:54;6.20;;;3.15;;
42682;SDS011;28293;50.930;3.464;2023-07-29T05:44:20;5.50;;;2.90;;
42682;SDS011;28293;50.930;3.464;2023-07-29T05:46:46;8.35;;;3.20;;
42682;SDS011;28293;50.930;3.464;2023-07-29T05:49:12;6.25;;;3.10;;
42682;SDS011;28293;50.930;3.464;2023-07-29T05:51:38;6.03;;;3.28;;
42682;SDS011;28293;50.930;3.464;2023-07-29T05:54:03;7.25;;;3.00;;
42682;SDS011;28293;50.930;3.464;2023-07-29T05:56:29;6.28;;;3.47;;
42682;SDS011;28293;50.930;3.464;2023-07-29T05:58:56;4.60;;;2.67;;
42682;SDS011;28293;50.930;3.464;2023-07-29T06:01:22;7.47;;;3.50;;
42682;SDS011;28293;50.930;3.464;2023-07-29T06:03:48;5.90;;;2.70;;
42682;SDS011;28293;50.930;3.464;2023-07-29T06:06:14;7.38;;;2.85;;
42682;SDS011;28293;50.930;3.464;2023-07-29T06:08:40;6.38;;;3.35;;
42682;SDS011;28293;50.930;3.464;2023-07-29T06:11:06;5.68;;;2.97;;
42682;SDS011;28293;50.930;3.464;2023-07-29T06:13:32;6.32;;;3.45;;
42682;SDS011;28293;50.930;3.464;2023-07-29T06:15:58;6.97;;;3.30;;
42682;SDS011;28293;50.930;3.464;2023-07-29T06:18:24;7.15;;;3.47;;
42682;SDS011;28293;50.930;3.464;2023-07-29T06:20:50;5.47;;;3.08;;
42682;SDS011;28293;50.930;3.464;2023-07-29T06:23:16;8.13;;;3.45;;
42682;SDS011;28293;50.930;3.464;2023-07-29T06:25:41;7.30;;;3.45;;
42682;SDS011;28293;50.930;3.464;2023-07-29T06:28:08;8.82;;;3.65;;
42682;SDS011;28293;50.930;3.464;2023-07-29T06:30:34;6.45;;;3.25;;
42682;SDS011;28293;50.930;3.464;2023-07-29T06:33:00;6.95;;;3.42;;
42682;SDS011;28293;50.930;3.464;2023-07-29T06:35:26;6.90;;;3.47;;
42682;SDS011;28293;50.930;3.464;2023-07-29T06:37:51;5.72;;;2.97;;
42682;SDS011;28293;50.930;3.464;2023-07-29T06:40:17;6.78;;;3.00;;
42682;SDS011;28293;50.930;3.464;2023-07-29T06:42:42;5.68;;;3.22;;
42682;SDS011;28293;50.930;3.464;2023-07-29T06:45:08;7.50;;;3.42;;
42682;SDS011;28293;50.930;3.464;2023-07-29T06:47:35;6.18;;;2.90;;
42682;SDS011;28293;50.930;3.464;2023-07-29T06:50:00;8.02;;;3.30;;
42682;SDS011;28293;50.930;3.464;2023-07-29T06:52:26;6.35;;;3.17;;
42682;SDS011;28293;50.930;3.464;2023-07-29T06:54:52;6.05;;;3.00;;
42682;SDS011;28293;50.930;3.464;2023-07-29T06:57:17;5.95;;;3.03;;
42682;SDS011;28293;50.930;3.464;2023-07-29T06:59:43;5.95;;;2.90;;
42682;SDS011;28293;50.930;3.464;2023-07-29T07:02:09;7.68;;;3.17;;
42682;SDS011;28293;50.930;3.464;2023-07-29T07:04:34;7.10;;;3.15;;
42682;SDS011;28293;50.930;3.464;2023-07-29T07:07:00;5.72;;;2.72;;
42682;SDS011;28293;50.930;3.464;2023-07-29T07:09:25;6.95;;;2.90;;
42682;SDS011;28293;50.930;3.464;2023-07-29T07:11:51;6.22;;;2.85;;
42682;SDS011;28293;50.930;3.464;2023-07-29T07:14:17;5.50;;;2.70;;
42682;SDS011;28293;50.930;3.464;2023-07-29T07:16:43;6.13;;;2.83;;
42682;SDS011;28293;50.930;3.464;2023-07-29T07:19:09;5.00;;;2.40;;
42682;SDS011;28293;50.930;3.464;2023-07-29T07:21:35;6.03;;;2.38;;
42682;SDS011;28293;50.930;3.464;2023-07-29T07:24:01;4.07;;;2.28;;
42682;SDS011;28293;50.930;3.464;2023-07-29T07:26:27;4.80;;;2.28;;
42682;SDS011;28293;50.930;3.464;2023-07-29T07:28:52;5.55;;;2.45;;
42682;SDS011;28293;50.930;3.464;2023-07-29T07:31:18;5.35;;;2.67;;
42682;SDS011;28293;50.930;3.464;2023-07-29T07:33:44;4.85;;;2.20;;
42682;SDS011;28293;50.930;3.464;2023-07-29T07:36:09;4.43;;;2.40;;
42682;SDS011;28293;50.930;3.464;2023-07-29T07:38:35;4.50;;;2.17;;
42682;SDS011;28293;50.930;3.464;2023-07-29T07:41:01;4.70;;;2.22;;
42682;SDS011;28293;50.930;3.464;2023-07-29T07:43:27;4.57;;;1.90;;
42682;SDS011;28293;50.930;3.464;2023-07-29T07:45:59;6.07;;;2.15;;
42682;SDS011;28293;50.930;3.464;2023-07-29T07:48:26;5.45;;;2.45;;
42682;SDS011;28293;50.930;3.464;2023-07-29T07:50:53;6.53;;;2.75;;
42682;SDS011;28293;50.930;3.464;2023-07-29T07:53:18;4.53;;;2.38;;
42682;SDS011;28293;50.930;3.464;2023-07-29T07:55:45;4.70;;;2.05;;
42682;SDS011;28293;50.930;3.464;2023-07-29T07:58:10;4.22;;;2.15;;
42682;SDS011;28293;50.930;3.464;2023-07-29T08:00:36;5.72;;;2.50;;
42682;SDS011;28293;50.930;3.464;2023-07-29T08:03:02;5.35;;;2.10;;
42682;SDS011;28293;50.930;3.464;2023-07-29T08:05:28;5.28;;;2.22;;
42682;SDS011;28293;50.930;3.464;2023-07-29T08:07:54;4.32;;;2.15;;
42682;SDS011;28293;50.930;3.464;2023-07-29T08:10:20;3.85;;;2.17;;
42682;SDS011;28293;50.930;3.464;2023-07-29T08:12:45;4.65;;;1.90;;
42682;SDS011;28293;50.930;3.464;2023-07-29T08:15:11;4.03;;;2.10;;
42682;SDS011;28293;50.930;3.464;2023-07-29T08:17:36;6.10;;;2.10;;
42682;SDS011;28293;50.930;3.464;2023-07-29T08:20:02;4.78;;;2.22;;
42682;SDS011;28293;50.930;3.464;2023-07-29T08:22:28;4.88;;;2.05;;
42682;SDS011;28293;50.930;3.464;2023-07-29T08:24:54;5.50;;;2.08;;
42682;SDS011;28293;50.930;3.464;2023-07-29T08:27:19;6.28;;;2.30;;
42682;SDS011;28293;50.930;3.464;2023-07-29T08:29:45;3.85;;;2.10;;
42682;SDS011;28293;50.930;3.464;2023-07-29T08:32:12;6.13;;;2.70;;
42682;SDS011;28293;50.930;3.464;2023-07-29T08:34:39;8.18;;;2.47;;
42682;SDS011;28293;50.930;3.464;2023-07-29T08:37:04;5.63;;;2.55;;
42682;SDS011;28293;50.930;3.464;2023-07-29T08:39:31;5.15;;;2.00;;
42682;SDS011;28293;50.930;3.464;2023-07-29T08:42:09;5.18;;;2.58;;
42682;SDS011;28293;50.930;3.464;2023-07-29T08:44:43;6.18;;;2.63;;
42682;SDS011;28293;50.930;3.464;2023-07-29T08:47:09;4.63;;;2.20;;
42682;SDS011;28293;50.930;3.464;2023-07-29T08:49:36;7.13;;;2.70;;
42682;SDS011;28293;50.930;3.464;2023-07-29T08:52:02;5.10;;;2.60;;
42682;SDS011;28293;50.930;3.464;2023-07-29T08:54:30;5.07;;;2.50;;
42682;SDS011;28293;50.930;3.464;2023-07-29T08:56:56;4.78;;;2.30;;
42682;SDS011;28293;50.930;3.464;2023-07-29T08:59:22;5.97;;;2.65;;
42682;SDS011;28293;50.930;3.464;2023-07-29T09:01:48;6.10;;;2.72;;
42682;SDS011;28293;50.930;3.464;2023-07-29T09:04:15;5.63;;;2.55;;
42682;SDS011;28293;50.930;3.464;2023-07-29T09:06:41;5.05;;;2.60;;
42682;SDS011;28293;50.930;3.464;2023-07-29T09:09:09;4.20;;;2.10;;
42682;SDS011;28293;50.930;3.464;2023-07-29T09:11:34;4.53;;;2.15;;
42682;SDS011;28293;50.930;3.464;2023-07-29T09:14:00;4.28;;;2.20;;
42682;SDS011;28293;50.930;3.464;2023-07-29T09:16:26;4.20;;;2.20;;
42682;SDS011;28293;50.930;3.464;2023-07-29T09:18:52;4.70;;;2.38;;
42682;SDS011;28293;50.930;3.464;2023-07-29T09:21:23;4.32;;;2.28;;
42682;SDS011;28293;50.930;3.464;2023-07-29T09:23:53;6.15;;;2.70;;
42682;SDS011;28293;50.930;3.464;2023-07-29T09:26:26;5.82;;;2.40;;
42682;SDS011;28293;50.930;3.464;2023-07-29T09:28:53;4.60;;;2.53;;
42682;SDS011;28293;50.930;3.464;2023-07-29T09:31:21;6.25;;;2.60;;
42682;SDS011;28293;50.930;3.464;2023-07-29T09:33:48;5.93;;;2.50;;
42682;SDS011;28293;50.930;3.464;2023-07-29T09:36:14;4.55;;;2.50;;
42682;SDS011;28293;50.930;3.464;2023-07-29T09:38:40;5.05;;;2.65;;
42682;SDS011;28293;50.930;3.464;2023-07-29T09:41:06;5.75;;;2.70;;
42682;SDS011;28293;50.930;3.464;2023-07-29T09:43:33;5.72;;;3.13;;
42682;SDS011;28293;50.930;3.464;2023-07-29T09:46:00;4.30;;;2.75;;
42682;SDS011;28293;50.930;3.464;2023-07-29T09:48:35;4.43;;;2.40;;
42682;SDS011;28293;50.930;3.464;2023-07-29T09:51:11;6.72;;;2.72;;
42682;SDS011;28293;50.930;3.464;2023-07-29T09:53:44;5.53;;;2.35;;
42682;SDS011;28293;50.930;3.464;2023-07-29T09:56:12;5.80;;;2.40;;
42682;SDS011;28293;50.930;3.464;2023-07-29T09:58:38;4.28;;;2.50;;
42682;SDS011;28293;50.930;3.464;2023-07-29T10:01:05;4.47;;;2.35;;
42682;SDS011;28293;50.930;3.464;2023-07-29T10:03:31;4.30;;;2.38;;
42682;SDS011;28293;50.930;3.464;2023-07-29T10:06:05;4.28;;;2.30;;
42682;SDS011;28293;50.930;3.464;2023-07-29T10:08:31;4.77;;;2.97;;
42682;SDS011;28293;50.930;3.464;2023-07-29T10:11:00;6.38;;;2.88;;
42682;SDS011;28293;50.930;3.464;2023-07-29T10:13:27;4.03;;;2.60;;
42682;SDS011;28293;50.930;3.464;2023-07-29T10:15:53;6.93;;;3.20;;
42682;SDS011;28293;50.930;3.464;2023-07-29T10:18:21;4.97;;;3.17;;
42682;SDS011;28293;50.930;3.464;2023-07-29T10:20:48;4.85;;;3.05;;
42682;SDS011;28293;50.930;3.464;2023-07-29T10:23:17;5.82;;;3.40;;
42682;SDS011;28293;50.930;3.464;2023-07-29T10:25:50;5.82;;;2.88;;
42682;SDS011;28293;50.930;3.464;2023-07-29T10:28:30;6.43;;;3.28;;
42682;SDS011;28293;50.930;3.464;2023-07-29T10:30:57;5.50;;;2.95;;
42682;SDS011;28293;50.930;3.464;2023-07-29T10:33:23;5.40;;;2.90;;
42682;SDS011;28293;50.930;3.464;2023-07-29T10:35:50;6.65;;;3.22;;
42682;SDS011;28293;50.930;3.464;2023-07-29T10:38:17;7.07;;;3.38;;
42682;SDS011;28293;50.930;3.464;2023-07-29T10:41:02;5.32;;;3.30;;
42682;SDS011;28293;50.930;3.464;2023-07-29T10:43:35;7.28;;;3.60;;
42682;SDS011;28293;50.930;3.464;2023-07-29T10:46:14;7.38;;;3.58;;
42682;SDS011;28293;50.930;3.464;2023-07-29T10:48:42;7.25;;;2.80;;
42682;SDS011;28293;50.930;3.464;2023-07-29T10:51:29;4.68;;;2.75;;
42682;SDS011;28293;50.930;3.464;2023-07-29T10:54:03;5.93;;;2.67;;
42682;SDS011;28293;50.930;3.464;2023-07-29T10:56:36;5.10;;;2.67;;
42682;SDS011;28293;50.930;3.464;2023-07-29T11:01:43;6.07;;;2.60;;
42682;SDS011;28293;50.930;3.464;2023-07-29T11:09:54;5.45;;;2.47;;
42682;SDS011;28293;50.930;3.464;2023-07-29T11:12:41;4.57;;;2.40;;
42682;SDS011;28293;50.930;3.464;2023-07-29T11:17:39;4.45;;;2.78;;
42682;SDS011;28293;50.930;3.464;2023-07-29T11:20:10;4.93;;;2.95;;
42682;SDS011;28293;50.930;3.464;2023-07-29T11:22:37;5.43;;;2.55;;
42682;SDS011;28293;50.930;3.464;2023-07-29T11:25:03;4.70;;;2.75;;
42682;SDS011;28293;50.930;3.464;2023-07-29T11:27:30;5.38;;;3.00;;
42682;SDS011;28293;50.930;3.464;2023-07-29T11:29:56;4.85;;;3.10;;
42682;SDS011;28293;50.930;3.464;2023-07-29T11:32:23;5.50;;;3.10;;
42682;SDS011;28293;50.930;3.464;2023-07-29T11:34:50;4.68;;;2.90;;
42682;SDS011;28293;50.930;3.464;2023-07-29T11:37:16;4.45;;;2.80;;
42682;SDS011;28293;50.930;3.464;2023-07-29T11:39:42;5.20;;;2.72;;
42682;SDS011;28293;50.930;3.464;2023-07-29T11:42:12;4.00;;;2.50;;
42682;SDS011;28293;50.930;3.464;2023-07-29T11:44:39;3.95;;;2.40;;
42682;SDS011;28293;50.930;3.464;2023-07-29T11:47:08;5.03;;;2.42;;
42682;SDS011;28293;50.930;3.464;2023-07-29T11:49:34;5.82;;;2.38;;
42682;SDS011;28293;50.930;3.464;2023-07-29T11:52:05;5.47;;;2.53;;
42682;SDS011;28293;50.930;3.464;2023-07-29T11:54:35;4.78;;;2.28;;
42682;SDS011;28293;50.930;3.464;2023-07-29T11:57:06;4.30;;;2.13;;
42682;SDS011;28293;50.930;3.464;2023-07-29T11:59:33;5.55;;;2.60;;
42682;SDS011;28293;50.930;3.464;2023-07-29T12:02:00;4.47;;;2.20;;
42682;SDS011;28293;50.930;3.464;2023-07-29T12:04:30;3.45;;;2.10;;
42682;SDS011;28293;50.930;3.464;2023-07-29T12:06:58;4.82;;;2.22;;
42682;SDS011;28293;50.930;3.464;2023-07-29T12:09:28;3.75;;;2.08;;
42682;SDS011;28293;50.930;3.464;2023-07-29T12:12:02;4.30;;;1.98;;
42682;SDS011;28293;50.930;3.464;2023-07-29T12:14:31;6.75;;;2.35;;
42682;SDS011;28293;50.930;3.464;2023-07-29T12:17:02;3.95;;;2.15;;
42682;SDS011;28293;50.930;3.464;2023-07-29T12:19:32;5.00;;;2.13;;
42682;SDS011;28293;50.930;3.464;2023-07-29T12:21:59;3.80;;;2.08;;
42682;SDS011;28293;50.930;3.464;2023-07-29T12:24:26;3.45;;;2.15;;
42682;SDS011;28293;50.930;3.464;2023-07-29T12:26:52;4.85;;;2.20;;
42682;SDS011;28293;50.930;3.464;2023-07-29T12:29:18;3.38;;;1.98;;
42682;SDS011;28293;50.930;3.464;2023-07-29T12:31:45;3.88;;;2.20;;
42682;SDS011;28293;50.930;3.464;2023-07-29T12:34:17;4.60;;;2.13;;
42682;SDS011;28293;50.930;3.464;2023-07-29T12:36:49;6.05;;;2.70;;
42682;SDS011;28293;50.930;3.464;2023-07-29T12:39:17;9.13;;;2.67;;
42682;SDS011;28293;50.930;3.464;2023-07-29T12:41:42;7.10;;;2.28;;
42682;SDS011;28293;50.930;3.464;2023-07-29T12:44:08;5.55;;;2.35;;
42682;SDS011;28293;50.930;3.464;2023-07-29T12:46:34;4.18;;;2.13;;
42682;SDS011;28293;50.930;3.464;2023-07-29T12:48:59;5.35;;;1.80;;
42682;SDS011;28293;50.930;3.464;2023-07-29T12:51:26;4.25;;;1.75;;
42682;SDS011;28293;50.930;3.464;2023-07-29T12:53:53;4.55;;;1.55;;
42682;SDS011;28293;50.930;3.464;2023-07-29T12:56:19;1.92;;;1.40;;
42682;SDS011;28293;50.930;3.464;2023-07-29T12:58:45;2.28;;;1.33;;
42682;SDS011;28293;50.930;3.464;2023-07-29T13:01:10;2.42;;;1.50;;
42682;SDS011;28293;50.930;3.464;2023-07-29T13:03:42;2.38;;;1.40;;
42682;SDS011;28293;50.930;3.464;2023-07-29T13:06:08;3.25;;;1.58;;
42682;SDS011;28293;50.930;3.464;2023-07-29T13:08:34;2.67;;;1.67;;
42682;SDS011;28293;50.930;3.464;2023-07-29T13:10:59;5.20;;;1.80;;
42682;SDS011;28293;50.930;3.464;2023-07-29T13:13:25;2.75;;;1.60;;
42682;SDS011;28293;50.930;3.464;2023-07-29T13:15:51;4.50;;;1.55;;
42682;SDS011;28293;50.930;3.464;2023-07-29T13:18:17;3.65;;;1.50;;
42682;SDS011;28293;50.930;3.464;2023-07-29T13:20:43;3.97;;;2.35;;
42682;SDS011;28293;50.930;3.464;2023-07-29T13:23:09;2.78;;;1.60;;
42682;SDS011;28293;50.930;3.464;2023-07-29T13:25:34;3.33;;;1.70;;
42682;SDS011;28293;50.930;3.464;2023-07-29T13:28:00;3.50;;;1.77;;
42682;SDS011;28293;50.930;3.464;2023-07-29T13:30:26;6.30;;;2.50;;
42682;SDS011;28293;50.930;3.464;2023-07-29T13:32:51;4.35;;;2.20;;
42682;SDS011;28293;50.930;3.464;2023-07-29T13:35:17;4.55;;;2.30;;
42682;SDS011;28293;50.930;3.464;2023-07-29T13:37:43;4.22;;;2.45;;
42682;SDS011;28293;50.930;3.464;2023-07-29T13:40:08;4.82;;;2.42;;
42682;SDS011;28293;50.930;3.464;2023-07-29T13:42:34;4.05;;;2.42;;
42682;SDS011;28293;50.930;3.464;2023-07-29T13:45:00;4.28;;;2.20;;
42682;SDS011;28293;50.930;3.464;2023-07-29T13:47:26;3.60;;;2.20;;
42682;SDS011;28293;50.930;3.464;2023-07-29T13:49:52;3.38;;;1.90;;
42682;SDS011;28293;50.930;3.464;2023-07-29T13:52:17;4.75;;;1.90;;
42682;SDS011;28293;50.930;3.464;2023-07-29T13:54:43;4.10;;;1.80;;
42682;SDS011;28293;50.930;3.464;2023-07-29T13:57:09;2.42;;;1.58;;
42682;SDS011;28293;50.930;3.464;2023-07-29T13:59:35;3.13;;;1.60;;
42682;SDS011;28293;50.930;3.464;2023-07-29T14:02:04;3.15;;;1.98;;
42682;SDS011;28293;50.930;3.464;2023-07-29T14:04:30;4.05;;;1.92;;
42682;SDS011;28293;50.930;3.464;2023-07-29T14:06:56;2.63;;;1.67;;
42682;SDS011;28293;50.930;3.464;2023-07-29T14:09:22;3.28;;;1.85;;
42682;SDS011;28293;50.930;3.464;2023-07-29T14:11:48;2.47;;;1.75;;
42682;SDS011;28293;50.930;3.464;2023-07-29T14:14:13;3.15;;;1.85;;
42682;SDS011;28293;50.930;3.464;2023-07-29T14:16:39;2.42;;;1.75;;
42682;SDS011;28293;50.930;3.464;2023-07-29T14:19:05;3.90;;;1.77;;
42682;SDS011;28293;50.930;3.464;2023-07-29T14:21:31;3.97;;;2.15;;
42682;SDS011;28293;50.930;3.464;2023-07-29T14:23:57;4.35;;;2.03;;
42682;SDS011;28293;50.930;3.464;2023-07-29T14:26:22;4.07;;;2.15;;
42682;SDS011;28293;50.930;3.464;2023-07-29T14:28:48;4.32;;;2.30;;
42682;SDS011;28293;50.930;3.464;2023-07-29T14:31:15;2.33;;;1.73;;
42682;SDS011;28293;50.930;3.464;2023-07-29T14:33:42;3.50;;;2.13;;
42682;SDS011;28293;50.930;3.464;2023-07-29T14:36:08;3.35;;;2.00;;
42682;SDS011;28293;50.930;3.464;2023-07-29T14:38:34;3.08;;;1.80;;
42682;SDS011;28293;50.930;3.464;2023-07-29T14:41:00;5.07;;;2.13;;
42682;SDS011;28293;50.930;3.464;2023-07-29T14:43:26;3.20;;;1.70;;
42682;SDS011;28293;50.930;3.464;2023-07-29T14:45:51;4.25;;;1.60;;
42682;SDS011;28293;50.930;3.464;2023-07-29T14:48:17;3.50;;;1.70;;
42682;SDS011;28293;50.930;3.464;2023-07-29T14:50:43;4.22;;;1.52;;
42682;SDS011;28293;50.930;3.464;2023-07-29T14:53:09;4.72;;;1.90;;
42682;SDS011;28293;50.930;3.464;2023-07-29T14:55:36;4.68;;;2.13;;
42682;SDS011;28293;50.930;3.464;2023-07-29T14:58:02;5.38;;;2.35;;
42682;SDS011;28293;50.930;3.464;2023-07-29T15:00:28;4.60;;;1.80;;
42682;SDS011;28293;50.930;3.464;2023-07-29T15:02:54;4.07;;;1.85;;